Cachoeira Dourada, Brazil
Current Conditions -  °F | °C
As of 1:00 AM on Wednesday 28 Jan 2015 (Local Time) from SBUL Reporting Station
Scattered Clouds Scattered Clouds  
Wind Chill: 68°   Ceiling: Unl
Heat Index: 68°   Visibility: 6mi
Dew Point: 64°   Wind: 14mph
Humidity: 88%   Direction: 40°NE
Pressure: 30.12"   Gusts: NA
Location:  18.49°S, 49.47°W
Report Text: SBUL 280300Z 04012KT 9999 FEW009 SCT080 20/18 Q1020
Loading
Personal Weather Stations






























Interactive Weather Map New forecast layout! Learn more

10-Day Weather Forecast

Advertisements
Track Severe Weather on mobile